In Rescue
 
Open Full Screen Window  High Contrast Mode
Wind Gusting 30 knots
22
January 20, 2021 4:39 PM CST
Weather Information
Wind Direction
  270 °
Wind Speed
  22 kt (25 mph)
Wind Gust
  30 kt (35 mph)
Altimeter
29.17 in
Visibility
---
Temperature
01° C
34° F
Dewpoint
-02° C
28° F
Humidity
81%
1hr Rain Fall
00.00 in.
24hr Rain Fall
00.02 in.
Sky Condition
Missing

METAR KFGN 202239Z AUTO 27022G30KT 01/M02 A2917 RMK AO2 PWINO

FAA Disclaimer: The data displayed is for advisory purposes only and is not to be used for flight planning or operations.
Missing Cloud Data